createdAt,value
2023-04-29T00:01:48.886Z,99451.03
2023-04-29T00:04:17.223Z,99451.09
2023-04-29T00:06:44.806Z,99459.09
2023-04-29T00:09:12.211Z,99449.69
2023-04-29T00:11:39.944Z,99440.22
2023-04-29T00:14:07.300Z,99442.16
2023-04-29T00:16:34.718Z,99444.37
2023-04-29T00:19:02.656Z,99441.19
2023-04-29T00:21:30.311Z,99436.84
2023-04-29T00:23:58.060Z,99440.00
2023-04-29T00:26:25.939Z,99435.22
2023-04-29T00:28:53.679Z,99439.44
2023-04-29T00:31:21.943Z,99428.47
2023-04-29T00:33:49.702Z,99431.81
2023-04-29T00:36:17.079Z,99431.94
2023-04-29T00:38:44.702Z,99434.84
2023-04-29T00:41:12.543Z,99443.22
2023-04-29T00:43:39.958Z,99450.44
2023-04-29T00:46:07.369Z,99447.13
2023-04-29T00:48:35.084Z,99452.56
2023-04-29T00:51:04.045Z,99445.16
2023-04-29T00:53:31.779Z,99441.53
2023-04-29T00:56:00.830Z,99449.19
2023-04-29T00:58:33.565Z,99452.94
2023-04-29T01:01:01.857Z,99446.53
2023-04-29T01:03:30.750Z,99440.34
2023-04-29T01:06:25.085Z,99439.88
2023-04-29T01:09:01.882Z,99442.38
2023-04-29T01:11:36.259Z,99439.75
2023-04-29T01:14:04.828Z,99445.06
2023-04-29T01:16:49.301Z,99442.03
2023-04-29T01:19:34.211Z,99434.38
2023-04-29T01:22:01.658Z,99432.75
2023-04-29T01:24:29.983Z,99440.53
2023-04-29T01:27:08.529Z,99436.87
2023-04-29T01:29:52.057Z,99436.78
2023-04-29T01:32:31.144Z,99442.03
2023-04-29T01:35:06.014Z,99418.56
2023-04-29T01:37:52.493Z,99423.03
2023-04-29T01:40:26.573Z,99423.69
2023-04-29T01:42:55.060Z,99421.16
2023-04-29T01:45:23.350Z,99419.94
2023-04-29T01:47:53.712Z,99419.38
2023-04-29T01:50:21.709Z,99414.94
2023-04-29T01:52:49.488Z,99418.34
2023-04-29T01:55:17.035Z,99416.34
2023-04-29T01:57:45.212Z,99415.56
2023-04-29T02:00:13.756Z,99423.06
2023-04-29T02:02:42.338Z,99423.19
2023-04-29T02:05:10.132Z,99415.47
2023-04-29T02:07:40.244Z,99423.53
2023-04-29T02:10:08.260Z,99425.88
2023-04-29T02:12:36.586Z,99414.94
2023-04-29T02:15:04.921Z,99418.03
2023-04-29T02:17:34.121Z,99422.81
2023-04-29T02:20:01.558Z,99420.09
2023-04-29T02:22:29.287Z,99427.16
2023-04-29T02:24:58.440Z,99414.41
2023-04-29T02:27:26.707Z,99418.00
2023-04-29T02:29:54.904Z,99414.41
2023-04-29T02:32:22.731Z,99407.97
2023-04-29T02:34:50.555Z,99406.25
2023-04-29T02:37:17.968Z,99396.09
2023-04-29T02:39:47.120Z,99397.38
2023-04-29T02:42:14.800Z,99393.72
2023-04-29T02:44:42.638Z,99400.31
2023-04-29T02:47:10.079Z,99399.66
2023-04-29T02:49:38.563Z,99402.72
2023-04-29T02:52:05.936Z,99389.84
2023-04-29T02:54:33.575Z,99396.72
2023-04-29T02:57:01.320Z,99399.13
2023-04-29T02:59:28.708Z,99394.78
2023-04-29T03:01:56.129Z,99390.44
2023-04-29T03:04:24.028Z,99401.50
2023-04-29T03:06:51.534Z,99405.91
2023-04-29T03:09:18.984Z,99403.59
2023-04-29T03:11:46.809Z,99408.28
2023-04-29T03:14:14.417Z,99408.16
2023-04-29T03:16:42.759Z,99407.75
2023-04-29T03:19:10.621Z,99410.62
2023-04-29T03:21:38.002Z,99410.25
2023-04-29T03:24:05.891Z,99413.56
2023-04-29T03:26:33.863Z,99410.41
2023-04-29T03:29:01.479Z,99410.09
2023-04-29T03:31:29.013Z,99412.38
2023-04-29T03:33:56.683Z,99409.06
2023-04-29T03:36:24.235Z,99407.59
2023-04-29T03:38:51.720Z,99410.16
2023-04-29T03:41:19.721Z,99410.84
2023-04-29T03:43:47.937Z,99419.91
2023-04-29T03:46:15.465Z,99428.87
2023-04-29T03:48:43.271Z,99433.78
2023-04-29T03:51:10.898Z,99425.00
2023-04-29T03:53:38.609Z,99434.06
2023-04-29T03:56:07.046Z,99436.00
2023-04-29T03:58:34.505Z,99431.97
2023-04-29T04:01:02.184Z,99429.50
2023-04-29T04:03:32.695Z,99433.44
2023-04-29T04:06:00.595Z,99438.53
2023-04-29T04:08:28.394Z,99436.31
2023-04-29T04:11:02.793Z,99432.50
2023-04-29T04:13:30.497Z,99434.38
2023-04-29T04:15:58.886Z,99429.81
2023-04-29T04:18:26.751Z,99429.59
2023-04-29T04:20:54.236Z,99426.84
2023-04-29T04:23:21.900Z,99436.63
2023-04-29T04:25:49.554Z,99434.53
2023-04-29T04:28:17.432Z,99443.94
2023-04-29T04:30:46.561Z,99435.00
2023-04-29T04:33:14.002Z,99442.19
2023-04-29T04:35:43.303Z,99444.19
2023-04-29T04:38:15.232Z,99451.03
2023-04-29T04:40:43.086Z,99449.97
2023-04-29T04:43:11.584Z,99443.56
2023-04-29T04:45:40.499Z,99438.44
2023-04-29T04:48:08.001Z,99444.22
2023-04-29T04:50:36.620Z,99440.22
2023-04-29T04:53:04.264Z,99438.00
2023-04-29T04:55:33.542Z,99437.75
2023-04-29T04:58:01.694Z,99424.56
2023-04-29T05:00:29.366Z,99424.28
2023-04-29T05:02:56.880Z,99414.56
2023-04-29T05:05:24.788Z,99431.34
2023-04-29T05:07:52.239Z,99425.97
2023-04-29T05:10:20.994Z,99429.00
2023-04-29T05:12:48.969Z,99430.03
2023-04-29T05:15:17.036Z,99427.44
2023-04-29T05:17:44.731Z,99427.50
2023-04-29T05:20:12.688Z,99428.94
2023-04-29T05:22:40.134Z,99440.00
2023-04-29T05:25:08.399Z,99432.34
2023-04-29T05:27:36.236Z,99443.44
2023-04-29T05:30:04.787Z,99435.22
2023-04-29T05:32:33.828Z,99438.16
2023-04-29T05:35:01.672Z,99444.63
2023-04-29T05:37:31.260Z,99452.06
2023-04-29T05:40:01.754Z,99437.84
2023-04-29T05:42:30.317Z,99446.69
2023-04-29T05:44:57.791Z,99447.72
2023-04-29T05:47:25.267Z,99449.84
2023-04-29T05:49:53.204Z,99446.09
2023-04-29T05:52:21.008Z,99454.94
2023-04-29T05:54:49.312Z,99448.34
2023-04-29T05:57:17.588Z,99457.16
2023-04-29T05:59:45.112Z,99461.44
2023-04-29T06:02:12.744Z,99464.34
2023-04-29T06:04:43.485Z,99461.34
2023-04-29T06:07:12.578Z,99463.22
2023-04-29T06:09:40.421Z,99457.25
2023-04-29T06:12:07.862Z,99461.28
2023-04-29T06:14:35.281Z,99446.53
2023-04-29T06:17:04.037Z,99449.84
2023-04-29T06:19:33.661Z,99447.94
2023-04-29T06:22:01.181Z,99446.81
2023-04-29T06:24:28.946Z,99447.13
2023-04-29T06:26:57.605Z,99454.69
2023-04-29T06:29:26.367Z,99454.00
2023-04-29T06:31:54.351Z,99445.25
2023-04-29T06:34:22.200Z,99453.13
2023-04-29T06:36:50.751Z,99459.72
2023-04-29T06:39:18.600Z,99455.62
2023-04-29T06:41:46.723Z,99460.16
2023-04-29T06:44:14.176Z,99456.62
2023-04-29T06:46:41.874Z,99458.63
2023-04-29T06:49:10.156Z,99454.31
2023-04-29T06:51:38.071Z,99450.94
2023-04-29T06:54:05.870Z,99458.59
2023-04-29T06:56:33.293Z,99454.28
2023-04-29T06:59:00.721Z,99457.19
2023-04-29T07:01:28.685Z,99460.53
2023-04-29T07:03:56.952Z,99456.97
2023-04-29T07:06:24.613Z,99460.03
2023-04-29T07:08:54.872Z,99459.97
2023-04-29T07:11:27.062Z,99456.78
2023-04-29T07:13:54.773Z,99464.22
2023-04-29T07:16:22.340Z,99463.88
2023-04-29T07:18:49.873Z,99460.16
2023-04-29T07:21:17.574Z,99467.31
2023-04-29T07:23:45.097Z,99462.09
2023-04-29T07:26:16.530Z,99464.28
2023-04-29T07:28:45.068Z,99460.94
2023-04-29T07:31:14.844Z,99466.19
2023-04-29T07:33:42.333Z,99459.97
2023-04-29T07:36:11.918Z,99461.28
2023-04-29T07:38:40.218Z,99455.50
2023-04-29T07:41:07.625Z,99454.31
2023-04-29T07:43:35.372Z,99453.03
2023-04-29T07:46:02.791Z,99450.34
2023-04-29T07:48:30.240Z,99444.13
2023-04-29T07:50:57.907Z,99446.31
2023-04-29T07:53:25.315Z,99466.13
2023-04-29T07:55:52.865Z,99458.06
2023-04-29T07:58:20.909Z,99466.38
2023-04-29T08:00:48.618Z,99472.16
2023-04-29T08:03:16.574Z,99471.25
2023-04-29T08:05:45.342Z,99461.56
2023-04-29T08:08:15.394Z,99465.13
2023-04-29T08:10:44.294Z,99465.22
2023-04-29T08:13:11.737Z,99465.09
2023-04-29T08:15:40.213Z,99469.66
2023-04-29T08:18:08.000Z,99471.03
2023-04-29T08:20:35.724Z,99469.41
2023-04-29T08:23:03.100Z,99462.09
2023-04-29T08:25:30.902Z,99473.84
2023-04-29T08:27:58.287Z,99462.50
2023-04-29T08:30:25.689Z,99452.97
2023-04-29T08:32:53.427Z,99467.91
2023-04-29T08:35:20.942Z,99459.19
2023-04-29T08:37:48.579Z,99462.72
2023-04-29T08:40:16.369Z,99459.19
2023-04-29T08:42:46.833Z,99461.22
2023-04-29T08:45:19.617Z,99464.34
2023-04-29T08:47:47.732Z,99460.97
2023-04-29T08:50:15.306Z,99455.22
2023-04-29T08:52:43.063Z,99470.09
2023-04-29T08:55:10.534Z,99465.53
2023-04-29T08:57:39.852Z,99476.38
2023-04-29T09:00:08.921Z,99474.28
2023-04-29T09:02:43.702Z,99479.34
2023-04-29T09:05:12.795Z,99481.53
2023-04-29T09:07:42.035Z,99468.56
2023-04-29T09:10:10.041Z,99476.00
2023-04-29T09:12:37.690Z,99473.97
2023-04-29T09:15:05.594Z,99481.53
2023-04-29T09:17:46.172Z,99483.97
2023-04-29T09:20:20.070Z,99474.19
2023-04-29T09:22:58.767Z,99480.94
2023-04-29T09:25:27.306Z,99474.25
2023-04-29T09:27:55.699Z,99475.56
2023-04-29T09:30:23.497Z,99476.19
2023-04-29T09:33:08.761Z,99480.06
2023-04-29T09:35:36.395Z,99483.72
2023-04-29T09:38:14.617Z,99485.34
2023-04-29T09:40:50.716Z,99478.22
2023-04-29T09:43:26.254Z,99481.59
2023-04-29T09:45:53.873Z,99470.03
2023-04-29T09:48:21.337Z,99474.28
2023-04-29T09:51:01.631Z,99472.47
2023-04-29T09:53:30.474Z,99468.28
2023-04-29T09:56:02.572Z,99469.91
2023-04-29T09:58:34.112Z,99468.66
2023-04-29T10:01:03.022Z,99470.16
2023-04-29T10:03:33.734Z,99464.62
2023-04-29T10:06:02.672Z,99470.81
2023-04-29T10:08:30.989Z,99461.56
2023-04-29T10:11:05.957Z,99466.81
2023-04-29T10:13:35.222Z,99465.81
2023-04-29T10:16:21.366Z,99464.62
2023-04-29T10:19:00.564Z,99469.25
2023-04-29T10:21:32.263Z,99459.06
2023-04-29T10:24:02.314Z,99458.88
2023-04-29T10:26:32.011Z,99469.53
2023-04-29T10:29:00.334Z,99463.50
2023-04-29T10:31:28.083Z,99456.09
2023-04-29T10:33:57.936Z,99450.59
2023-04-29T10:36:26.258Z,99450.03
2023-04-29T10:38:55.439Z,99439.69
2023-04-29T10:41:26.969Z,99434.78
2023-04-29T10:43:55.263Z,99430.34
2023-04-29T10:46:26.445Z,99435.97
2023-04-29T10:49:04.088Z,99425.78
2023-04-29T10:51:33.896Z,99421.37
2023-04-29T10:54:04.395Z,99411.28
2023-04-29T10:56:44.827Z,99407.91
2023-04-29T10:59:14.387Z,99410.06
2023-04-29T11:01:46.961Z,99399.87
2023-04-29T11:04:15.695Z,99402.09
2023-04-29T11:06:47.454Z,99395.44
2023-04-29T11:09:19.655Z,99392.50
2023-04-29T11:11:54.467Z,99389.78
2023-04-29T11:14:27.560Z,99395.09
2023-04-29T11:17:01.452Z,99394.97
2023-04-29T11:19:34.558Z,99394.31
2023-04-29T11:22:28.583Z,99387.44
2023-04-29T11:24:57.879Z,99382.22
2023-04-29T11:27:36.357Z,99378.50
2023-04-29T11:30:05.471Z,99388.97
2023-04-29T11:32:36.848Z,99385.63
2023-04-29T11:35:12.940Z,99383.44
2023-04-29T11:37:42.007Z,99377.75
2023-04-29T11:40:10.047Z,99384.41
2023-04-29T11:42:48.198Z,99384.72
2023-04-29T11:45:18.769Z,99386.22
2023-04-29T11:47:47.888Z,99384.75
2023-04-29T11:50:19.210Z,99383.59
2023-04-29T11:52:47.761Z,99383.72
2023-04-29T11:55:15.475Z,99387.53
2023-04-29T11:57:43.762Z,99384.56
2023-04-29T12:00:14.603Z,99381.19
2023-04-29T12:02:47.733Z,99382.13
2023-04-29T12:05:17.253Z,99387.28
2023-04-29T12:07:45.574Z,99386.28
2023-04-29T12:10:13.061Z,99380.06
2023-04-29T12:12:47.399Z,99372.00
2023-04-29T12:15:15.284Z,99378.16
2023-04-29T12:17:42.847Z,99362.41
2023-04-29T12:20:11.095Z,99369.91
2023-04-29T12:22:39.068Z,99363.72
2023-04-29T12:25:08.058Z,99366.75
2023-04-29T12:27:36.216Z,99370.69
2023-04-29T12:30:08.258Z,99364.28
2023-04-29T12:32:36.962Z,99364.16
2023-04-29T12:35:05.012Z,99356.91
2023-04-29T12:37:33.917Z,99348.13
2023-04-29T12:40:01.490Z,99357.16
2023-04-29T12:42:34.998Z,99356.72
2023-04-29T12:45:02.658Z,99352.72
2023-04-29T12:47:37.638Z,99347.41
2023-04-29T12:50:07.246Z,99345.47
2023-04-29T12:52:36.752Z,99353.06
2023-04-29T12:55:05.105Z,99343.25
2023-04-29T12:57:32.570Z,99342.19
2023-04-29T13:00:00.370Z,99334.12
2023-04-29T13:02:28.531Z,99332.31
2023-04-29T13:04:56.481Z,99328.84
2023-04-29T13:07:24.451Z,99325.50
2023-04-29T13:09:51.851Z,99322.34
2023-04-29T13:12:19.275Z,99322.50
2023-04-29T13:14:46.970Z,99318.19
2023-04-29T13:17:14.880Z,99322.78
2023-04-29T13:19:51.144Z,99318.84
2023-04-29T13:22:19.920Z,99317.91
2023-04-29T13:24:47.786Z,99313.78
2023-04-29T13:27:15.243Z,99308.59
2023-04-29T13:29:42.896Z,99312.22
2023-04-29T13:32:10.548Z,99298.06
2023-04-29T13:34:38.075Z,99292.13
2023-04-29T13:37:06.151Z,99294.56
2023-04-29T13:39:38.114Z,99295.53
2023-04-29T13:42:06.630Z,99293.22
2023-04-29T13:44:47.502Z,99288.88
2023-04-29T13:47:25.612Z,99282.69
2023-04-29T13:50:23.847Z,99281.84
2023-04-29T13:55:39.494Z,99285.63
2023-04-29T13:58:43.504Z,99292.47
2023-04-29T14:01:17.163Z,99288.84
2023-04-29T14:03:35.989Z,99280.97
2023-04-29T14:06:03.875Z,99285.59
2023-04-29T14:08:31.264Z,99286.16
2023-04-29T14:10:59.116Z,99282.66
2023-04-29T14:13:26.640Z,99289.66
2023-04-29T14:15:54.611Z,99280.31
2023-04-29T14:18:22.425Z,99267.38
2023-04-29T14:20:49.865Z,99267.28
2023-04-29T14:23:17.272Z,99261.75
2023-04-29T14:25:45.049Z,99269.28
2023-04-29T14:28:12.700Z,99265.53
2023-04-29T14:30:41.111Z,99271.94
2023-04-29T14:33:09.154Z,99271.41
2023-04-29T14:35:36.596Z,99271.66
2023-04-29T14:38:03.995Z,99278.69
2023-04-29T14:40:31.772Z,99271.03
2023-04-29T14:42:59.164Z,99278.25
2023-04-29T14:45:26.569Z,99275.06
2023-04-29T14:47:54.233Z,99273.06
2023-04-29T14:50:23.271Z,99272.25
2023-04-29T14:52:50.946Z,99274.63
2023-04-29T14:55:18.666Z,99280.03
2023-04-29T14:57:46.315Z,99272.06
2023-04-29T15:00:15.079Z,99274.53
2023-04-29T15:02:43.056Z,99283.19
2023-04-29T15:05:10.557Z,99277.16
2023-04-29T15:07:37.994Z,99280.31
2023-04-29T15:10:07.858Z,99278.00
2023-04-29T15:12:35.287Z,99275.47
2023-04-29T15:15:02.709Z,99273.81
2023-04-29T15:17:30.689Z,99277.81
2023-04-29T15:19:58.136Z,99270.09
2023-04-29T15:22:25.574Z,99276.28
2023-04-29T15:24:53.336Z,99273.06
2023-04-29T15:27:21.513Z,99278.00
2023-04-29T15:29:48.956Z,99280.88
2023-04-29T15:32:17.200Z,99273.06
2023-04-29T15:34:44.644Z,99266.97
2023-04-29T15:37:12.264Z,99271.38
2023-04-29T15:39:39.983Z,99267.16
2023-04-29T15:42:07.532Z,99261.69
2023-04-29T15:44:34.907Z,99268.22
2023-04-29T15:47:02.640Z,99261.22
2023-04-29T15:49:31.073Z,99262.78
2023-04-29T15:51:58.486Z,99259.41
2023-04-29T15:54:26.194Z,99258.00
2023-04-29T15:56:55.591Z,99251.19
2023-04-29T15:59:23.057Z,99248.31
2023-04-29T16:01:50.857Z,99251.25
2023-04-29T16:04:18.660Z,99256.44
2023-04-29T16:06:46.182Z,99252.28
2023-04-29T16:09:14.032Z,99248.41
2023-04-29T16:11:42.080Z,99250.34
2023-04-29T16:14:09.543Z,99257.59
2023-04-29T16:16:37.099Z,99258.34
2023-04-29T16:19:04.819Z,99256.13
2023-04-29T16:21:32.922Z,99257.91
2023-04-29T16:24:00.325Z,99259.88
2023-04-29T16:26:28.268Z,99268.87
2023-04-29T16:28:55.933Z,99264.66
2023-04-29T16:31:23.648Z,99266.69
2023-04-29T16:33:51.365Z,99252.16
2023-04-29T16:36:18.984Z,99256.34
2023-04-29T16:38:46.498Z,99259.09
2023-04-29T16:41:14.160Z,99256.22
2023-04-29T16:43:41.552Z,99253.69
2023-04-29T16:46:09.932Z,99251.59
2023-04-29T16:48:37.715Z,99249.09
2023-04-29T16:51:05.170Z,99259.53
2023-04-29T16:53:32.586Z,99254.75
2023-04-29T16:56:00.478Z,99249.09
2023-04-29T16:58:28.979Z,99247.78
2023-04-29T17:00:56.573Z,99256.88
2023-04-29T17:03:24.372Z,99256.28
2023-04-29T17:05:51.896Z,99262.50
2023-04-29T17:08:19.390Z,99257.91
2023-04-29T17:10:47.127Z,99266.25
2023-04-29T17:13:14.744Z,99266.03
2023-04-29T17:15:42.243Z,99264.59
2023-04-29T17:18:09.980Z,99266.22
2023-04-29T17:20:37.471Z,99272.81
2023-04-29T17:23:05.634Z,99274.16
2023-04-29T17:25:33.568Z,99269.94
2023-04-29T17:28:01.110Z,99283.16
2023-04-29T17:30:28.607Z,99275.88
2023-04-29T17:32:56.471Z,99268.47
2023-04-29T17:35:23.999Z,99280.69
2023-04-29T17:37:51.418Z,99277.44
2023-04-29T17:40:19.412Z,99273.25
2023-04-29T17:42:46.846Z,99282.19
2023-04-29T17:45:14.365Z,99294.09
2023-04-29T17:47:42.149Z,99297.16
2023-04-29T17:50:09.634Z,99296.00
2023-04-29T17:52:37.203Z,99292.16
2023-04-29T17:55:05.498Z,99297.91
2023-04-29T17:57:33.059Z,99306.16
2023-04-29T18:00:00.926Z,99302.31
2023-04-29T18:02:28.640Z,99299.84
2023-04-29T18:04:56.442Z,99308.91
2023-04-29T18:07:24.063Z,99300.22
2023-04-29T18:09:51.718Z,99300.22
2023-04-29T18:12:19.824Z,99303.44
2023-04-29T18:14:48.819Z,99302.44
2023-04-29T18:17:16.380Z,99311.41
2023-04-29T18:19:46.851Z,99319.09
2023-04-29T18:22:14.427Z,99318.06
2023-04-29T18:24:41.873Z,99312.56
2023-04-29T18:27:09.622Z,99310.06
2023-04-29T18:29:37.059Z,99325.97
2023-04-29T18:32:07.242Z,99326.81
2023-04-29T18:34:36.167Z,99324.47
2023-04-29T18:37:03.598Z,99334.94
2023-04-29T18:39:31.015Z,99335.78
2023-04-29T18:41:59.080Z,99345.72
2023-04-29T18:44:27.987Z,99350.97
2023-04-29T18:46:55.697Z,99348.62
2023-04-29T18:49:23.382Z,99345.97
2023-04-29T18:51:51.072Z,99349.81
2023-04-29T18:54:18.806Z,99344.38
2023-04-29T18:56:48.358Z,99351.00
2023-04-29T18:59:19.314Z,99359.72
2023-04-29T19:01:48.356Z,99368.87
2023-04-29T19:04:16.678Z,99368.87
2023-04-29T19:06:44.600Z,99365.25
2023-04-29T19:09:13.589Z,99371.09
2023-04-29T19:11:41.193Z,99371.22
2023-04-29T19:14:08.630Z,99374.50
2023-04-29T19:16:37.371Z,99369.31
2023-04-29T19:19:05.168Z,99375.94
2023-04-29T19:21:35.892Z,99370.56
2023-04-29T19:24:03.788Z,99373.09
2023-04-29T19:26:32.991Z,99373.97
2023-04-29T19:29:02.801Z,99377.94
2023-04-29T19:31:30.609Z,99380.62
2023-04-29T19:33:58.071Z,99375.94
2023-04-29T19:36:26.248Z,99378.84
2023-04-29T19:38:54.092Z,99384.41
2023-04-29T19:41:21.640Z,99380.44
2023-04-29T19:43:49.322Z,99380.62
2023-04-29T19:46:17.104Z,99376.31
2023-04-29T19:48:44.586Z,99378.00
2023-04-29T19:51:12.256Z,99381.38
2023-04-29T19:53:40.833Z,99387.66
2023-04-29T19:56:08.406Z,99389.16
2023-04-29T19:58:36.028Z,99389.50
2023-04-29T20:01:04.045Z,99383.25
2023-04-29T20:03:32.814Z,99383.37
2023-04-29T20:06:00.306Z,99385.00
2023-04-29T20:08:27.802Z,99391.44
2023-04-29T20:10:55.584Z,99387.34
2023-04-29T20:13:23.003Z,99391.06
2023-04-29T20:15:50.854Z,99386.44
2023-04-29T20:18:18.568Z,99391.06
2023-04-29T20:20:45.983Z,99397.66
2023-04-29T20:23:13.647Z,99396.12
2023-04-29T20:25:41.439Z,99388.91
2023-04-29T20:28:09.400Z,99385.34
2023-04-29T20:30:36.818Z,99383.97
2023-04-29T20:33:05.328Z,99384.47
2023-04-29T20:35:33.983Z,99385.81
2023-04-29T20:38:01.470Z,99388.50
2023-04-29T20:40:29.236Z,99391.72
2023-04-29T20:42:57.297Z,99389.78
2023-04-29T20:45:24.979Z,99384.69
2023-04-29T20:47:53.042Z,99381.22
2023-04-29T20:50:20.830Z,99378.91
2023-04-29T20:52:49.460Z,99380.75
2023-04-29T20:55:17.306Z,99394.13
2023-04-29T20:57:44.727Z,99399.19
2023-04-29T21:00:12.626Z,99397.31
2023-04-29T21:02:40.337Z,99404.28
2023-04-29T21:05:09.942Z,99411.56
2023-04-29T21:07:37.661Z,99410.56
2023-04-29T21:10:05.732Z,99408.38
2023-04-29T21:12:33.305Z,99403.12
2023-04-29T21:15:00.766Z,99409.59
2023-04-29T21:17:28.738Z,99405.22
2023-04-29T21:19:56.691Z,99407.44
2023-04-29T21:22:24.560Z,99412.84
2023-04-29T21:24:52.410Z,99408.63
2023-04-29T21:27:19.796Z,99409.81
2023-04-29T21:29:47.206Z,99416.25
2023-04-29T21:32:18.255Z,99415.94
2023-04-29T21:34:45.679Z,99414.75
2023-04-29T21:37:13.283Z,99412.22
2023-04-29T21:39:40.991Z,99417.81
2023-04-29T21:42:08.972Z,99418.81
2023-04-29T21:44:37.901Z,99423.91
2023-04-29T21:47:06.866Z,99427.28
2023-04-29T21:49:34.560Z,99429.56
2023-04-29T21:52:02.064Z,99422.69
2023-04-29T21:54:29.768Z,99422.03
2023-04-29T21:56:58.030Z,99430.47
2023-04-29T21:59:25.477Z,99425.94
2023-04-29T22:02:00.340Z,99416.94
2023-04-29T22:04:28.287Z,99418.47
2023-04-29T22:06:56.920Z,99414.91
2023-04-29T22:09:24.461Z,99413.91
2023-04-29T22:11:52.201Z,99412.56
2023-04-29T22:14:19.579Z,99418.78
2023-04-29T22:16:47.161Z,99420.97
2023-04-29T22:19:14.878Z,99419.78
2023-04-29T22:21:43.285Z,99417.56
2023-04-29T22:24:11.011Z,99419.28
2023-04-29T22:26:38.661Z,99415.56
2023-04-29T22:29:06.485Z,99424.22
2023-04-29T22:31:33.988Z,99422.34
2023-04-29T22:34:01.703Z,99415.59
2023-04-29T22:36:29.233Z,99413.87
2023-04-29T22:38:56.616Z,99416.25
2023-04-29T22:41:24.393Z,99422.66
2023-04-29T22:43:57.047Z,99414.22
2023-04-29T22:46:25.541Z,99421.16
2023-04-29T22:48:53.087Z,99417.13
2023-04-29T22:51:20.703Z,99417.94
2023-04-29T22:53:48.560Z,99421.31
2023-04-29T22:56:15.964Z,99425.38
2023-04-29T22:58:43.378Z,99428.59
2023-04-29T23:01:12.192Z,99426.41
2023-04-29T23:03:39.783Z,99417.78
2023-04-29T23:06:07.339Z,99415.22
2023-04-29T23:08:35.088Z,99429.63
2023-04-29T23:11:02.536Z,99425.94
2023-04-29T23:13:29.953Z,99427.94
2023-04-29T23:15:59.459Z,99424.72
2023-04-29T23:18:26.924Z,99436.56
2023-04-29T23:20:55.483Z,99430.63
2023-04-29T23:23:23.322Z,99432.53
2023-04-29T23:25:50.807Z,99435.56
2023-04-29T23:28:18.267Z,99430.47
2023-04-29T23:30:49.092Z,99438.97
2023-04-29T23:33:16.637Z,99426.06
2023-04-29T23:35:53.627Z,99427.13
2023-04-29T23:38:21.467Z,99429.47
2023-04-29T23:40:49.369Z,99417.31
2023-04-29T23:43:16.823Z,99423.03
2023-04-29T23:45:45.855Z,99424.06
2023-04-29T23:48:13.622Z,99425.94
2023-04-29T23:50:41.015Z,99415.28
2023-04-29T23:53:08.726Z,99420.97
2023-04-29T23:55:36.219Z,99424.22
2023-04-29T23:58:04.123Z,99420.47
